createdAt,value
2017-12-13T00:00:24.783Z,78.99
2017-12-13T00:02:51.203Z,79.08
2017-12-13T00:05:17.541Z,79.17
2017-12-13T00:07:43.856Z,79.25
2017-12-13T00:10:10.302Z,79.29
2017-12-13T00:12:36.735Z,79.00
2017-12-13T00:15:03.889Z,78.72
2017-12-13T00:17:30.363Z,78.50
2017-12-13T00:19:56.843Z,78.44
2017-12-13T00:22:23.225Z,78.66
2017-12-13T00:24:49.557Z,78.78
2017-12-13T00:27:15.966Z,78.81
2017-12-13T00:29:42.393Z,79.13
2017-12-13T00:32:09.646Z,79.31
2017-12-13T00:34:36.133Z,79.22
2017-12-13T00:37:02.445Z,79.12
2017-12-13T00:39:28.847Z,78.96
2017-12-13T00:41:55.213Z,78.87
2017-12-13T00:44:21.618Z,78.83
2017-12-13T00:46:48.049Z,78.81
2017-12-13T00:49:15.202Z,78.89
2017-12-13T00:51:41.636Z,78.96
2017-12-13T00:54:08.000Z,79.09
2017-12-13T00:56:34.401Z,79.08
2017-12-13T00:59:00.836Z,79.08
2017-12-13T01:01:27.374Z,79.08
2017-12-13T01:03:53.808Z,79.16
2017-12-13T01:06:20.856Z,79.15
2017-12-13T01:08:47.225Z,79.00
2017-12-13T01:11:13.655Z,79.24
2017-12-13T01:13:40.059Z,79.76
2017-12-13T01:16:06.493Z,79.75
2017-12-13T01:18:32.927Z,79.61
2017-12-13T01:20:59.363Z,79.57
2017-12-13T01:23:26.486Z,79.81
2017-12-13T01:25:52.928Z,80.04
2017-12-13T01:28:19.371Z,80.43
2017-12-13T01:30:45.765Z,80.56
2017-12-13T01:33:12.252Z,80.48
2017-12-13T01:35:38.772Z,80.45
2017-12-13T01:38:05.223Z,80.82
2017-12-13T01:40:32.356Z,81.38
2017-12-13T01:42:58.808Z,81.27
2017-12-13T01:45:25.175Z,80.96
2017-12-13T01:47:51.510Z,80.49
2017-12-13T01:50:17.908Z,80.55
2017-12-13T01:52:44.342Z,80.56
2017-12-13T01:55:10.781Z,80.85
2017-12-13T01:57:37.928Z,81.02
2017-12-13T02:00:04.367Z,81.11
2017-12-13T02:02:30.798Z,81.14
2017-12-13T02:04:57.335Z,81.15
2017-12-13T02:07:23.771Z,81.12
2017-12-13T02:09:50.205Z,80.93
2017-12-13T02:12:16.638Z,80.92
2017-12-13T02:14:43.892Z,81.42
2017-12-13T02:17:10.227Z,82.28
2017-12-13T02:19:36.660Z,82.61
2017-12-13T02:22:03.071Z,82.76
2017-12-13T02:24:29.530Z,82.93
2017-12-13T02:26:55.861Z,82.57
2017-12-13T02:29:22.293Z,82.32
2017-12-13T02:31:49.447Z,81.96
2017-12-13T02:34:15.899Z,81.90
2017-12-13T02:36:42.316Z,82.02
2017-12-13T02:39:08.750Z,82.80
2017-12-13T02:41:35.188Z,83.01
2017-12-13T02:44:01.640Z,82.95
2017-12-13T02:46:28.053Z,83.06
2017-12-13T02:48:55.201Z,83.21
2017-12-13T02:51:21.515Z,83.15
2017-12-13T02:53:47.869Z,82.85
2017-12-13T02:56:14.305Z,82.56
2017-12-13T02:58:40.748Z,82.31
2017-12-13T03:01:07.174Z,82.31
2017-12-13T03:03:33.607Z,82.26
2017-12-13T03:06:00.829Z,82.47
2017-12-13T03:08:27.229Z,82.78
2017-12-13T03:10:53.712Z,82.94
2017-12-13T03:13:20.166Z,83.21
2017-12-13T03:15:46.600Z,83.41
2017-12-13T03:18:12.932Z,83.29
2017-12-13T03:20:39.366Z,83.05
2017-12-13T03:23:06.518Z,82.82
2017-12-13T03:25:32.952Z,82.68
2017-12-13T03:27:59.387Z,82.69
2017-12-13T03:30:25.821Z,82.85
2017-12-13T03:32:52.191Z,83.23
2017-12-13T03:35:18.588Z,83.24
2017-12-13T03:37:45.024Z,82.98
2017-12-13T03:40:12.266Z,82.80
2017-12-13T03:42:38.711Z,82.71
2017-12-13T03:45:05.146Z,82.57
2017-12-13T03:47:31.580Z,82.54
2017-12-13T03:49:58.015Z,82.49
2017-12-13T03:52:24.450Z,82.44
2017-12-13T03:54:50.906Z,82.44
2017-12-13T03:57:18.141Z,82.49
2017-12-13T03:59:44.573Z,82.60
2017-12-13T04:02:11.008Z,82.76
2017-12-13T04:04:37.442Z,82.75
2017-12-13T04:07:03.879Z,82.64
2017-12-13T04:09:30.333Z,82.52
2017-12-13T04:11:56.746Z,82.80
2017-12-13T04:14:23.897Z,83.19
2017-12-13T04:16:50.299Z,83.13
2017-12-13T04:19:16.769Z,83.04
2017-12-13T04:21:43.203Z,82.79
2017-12-13T04:24:09.637Z,82.65
2017-12-13T04:26:36.071Z,82.66
2017-12-13T04:29:02.607Z,83.17
2017-12-13T04:31:29.651Z,83.04
2017-12-13T04:33:56.094Z,82.90
2017-12-13T04:36:22.559Z,82.81
2017-12-13T04:38:48.962Z,82.37
2017-12-13T04:41:15.398Z,81.99
2017-12-13T04:43:41.831Z,82.04
2017-12-13T04:46:08.265Z,82.31
2017-12-13T04:48:35.416Z,82.52
2017-12-13T04:51:01.952Z,82.72
2017-12-13T04:53:28.388Z,82.67
2017-12-13T04:55:54.821Z,82.89
2017-12-13T04:58:21.184Z,83.02
2017-12-13T05:00:47.588Z,82.84
2017-12-13T05:03:13.920Z,82.57
2017-12-13T05:05:41.174Z,82.29
2017-12-13T05:08:07.609Z,82.29
2017-12-13T05:10:34.042Z,82.35
2017-12-13T05:13:00.580Z,82.57
2017-12-13T05:15:27.014Z,83.01
2017-12-13T05:17:53.453Z,84.07
2017-12-13T05:20:19.817Z,84.49
2017-12-13T05:22:47.035Z,83.95
2017-12-13T05:25:13.473Z,84.07
2017-12-13T05:27:39.890Z,84.30
2017-12-13T05:30:06.277Z,84.35
2017-12-13T05:32:32.776Z,84.56
2017-12-13T05:34:59.209Z,84.72
2017-12-13T05:37:25.643Z,84.69
2017-12-13T05:39:52.775Z,84.46
2017-12-13T05:42:19.156Z,83.14
2017-12-13T05:44:45.535Z,82.36
2017-12-13T05:47:11.903Z,82.05
2017-12-13T05:49:38.328Z,82.25
2017-12-13T05:52:04.660Z,82.54
2017-12-13T05:54:31.096Z,83.52
2017-12-13T05:56:58.276Z,84.12
2017-12-13T05:59:24.783Z,84.06
2017-12-13T06:01:51.164Z,83.82
2017-12-13T06:04:17.652Z,84.11
2017-12-13T06:06:44.086Z,84.13
2017-12-13T06:09:10.521Z,83.56
2017-12-13T06:11:36.956Z,83.46
2017-12-13T06:14:04.208Z,83.49
2017-12-13T06:16:30.664Z,83.31
2017-12-13T06:18:57.078Z,82.67
2017-12-13T06:21:23.513Z,82.61
2017-12-13T06:23:49.845Z,82.77
2017-12-13T06:26:16.382Z,82.97
2017-12-13T06:28:42.816Z,83.13
2017-12-13T06:31:09.868Z,83.19
2017-12-13T06:33:36.405Z,82.78
2017-12-13T06:36:02.940Z,82.61
2017-12-13T06:38:29.375Z,82.36
2017-12-13T06:40:55.810Z,82.43
2017-12-13T06:43:22.243Z,82.30
2017-12-13T06:45:48.678Z,82.12
2017-12-13T06:48:15.051Z,82.02
2017-12-13T06:50:41.956Z,81.77
2017-12-13T06:53:08.397Z,81.67
2017-12-13T06:55:34.833Z,81.64
2017-12-13T06:58:02.182Z,81.51
2017-12-13T07:00:28.616Z,81.22
2017-12-13T07:13:01.005Z,79.91
2017-12-13T07:15:27.808Z,79.59
2017-12-13T07:17:54.241Z,79.55
2017-12-13T07:20:20.780Z,79.42
2017-12-13T07:22:47.635Z,79.32
2017-12-13T07:25:13.957Z,79.23
2017-12-13T07:27:40.291Z,79.18
2017-12-13T07:30:06.723Z,78.84
2017-12-13T07:32:33.465Z,78.51
2017-12-13T07:34:59.901Z,78.05
2017-12-13T07:37:26.332Z,77.72
2017-12-13T07:39:52.971Z,77.47
2017-12-13T07:42:19.406Z,77.17
2017-12-13T07:44:45.738Z,76.85
2017-12-13T07:47:12.584Z,76.43
2017-12-13T07:49:39.024Z,76.04
2017-12-13T07:52:05.554Z,75.43
2017-12-13T07:54:32.388Z,75.11
2017-12-13T07:56:58.833Z,74.95
2017-12-13T07:59:25.212Z,74.93
2017-12-13T08:01:51.804Z,75.06
2017-12-13T08:04:18.192Z,75.17
2017-12-13T08:06:44.749Z,75.12
2017-12-13T08:09:11.550Z,75.06
2017-12-13T08:11:38.157Z,74.98
2017-12-13T08:14:04.591Z,74.71
2017-12-13T08:16:31.272Z,74.17
2017-12-13T08:18:57.666Z,73.92
2017-12-13T08:21:24.053Z,73.14
2017-12-13T08:23:50.773Z,72.49
2017-12-13T08:26:18.533Z,71.82
2017-12-13T08:28:45.210Z,71.02
2017-12-13T08:31:11.936Z,70.57
2017-12-13T08:33:38.529Z,69.92
2017-12-13T08:36:04.932Z,69.41
2017-12-13T08:38:31.573Z,68.77
2017-12-13T08:40:58.137Z,68.15
2017-12-13T08:43:24.558Z,67.35
2017-12-13T08:45:51.404Z,67.03
2017-12-13T08:48:17.849Z,66.66
2017-12-13T08:50:44.362Z,66.26
2017-12-13T08:53:11.164Z,65.69
2017-12-13T08:55:37.519Z,65.57
2017-12-13T08:58:03.840Z,65.07
2017-12-13T09:00:30.685Z,64.71
2017-12-13T09:02:57.046Z,63.91
2017-12-13T09:05:23.440Z,63.24
2017-12-13T09:07:49.942Z,62.78
2017-12-13T09:10:16.710Z,62.62
2017-12-13T09:12:43.149Z,62.54
2017-12-13T09:15:09.833Z,62.36
2017-12-13T09:17:36.513Z,62.04
2017-12-13T09:20:02.997Z,61.93
2017-12-13T09:22:29.617Z,61.82
2017-12-13T09:24:56.213Z,61.46
2017-12-13T09:27:23.070Z,61.06
2017-12-13T09:29:49.491Z,60.85
2017-12-13T09:32:16.134Z,60.63
2017-12-13T09:34:42.567Z,60.58
2017-12-13T09:37:08.999Z,60.50
2017-12-13T09:39:35.434Z,60.42
2017-12-13T09:42:01.885Z,59.97
2017-12-13T09:44:28.303Z,59.42
2017-12-13T09:46:54.948Z,59.26
2017-12-13T09:49:21.312Z,58.76
2017-12-13T09:51:47.918Z,58.50
2017-12-13T09:54:14.451Z,58.06
2017-12-13T09:56:40.849Z,57.72
2017-12-13T09:59:07.351Z,57.46
2017-12-13T10:01:34.339Z,57.29
2017-12-13T10:04:00.782Z,57.22
2017-12-13T10:06:27.751Z,56.85
2017-12-13T10:08:54.408Z,56.11
2017-12-13T10:11:20.909Z,55.73
2017-12-13T10:13:47.296Z,55.01
2017-12-13T10:16:14.109Z,54.87
2017-12-13T10:18:40.540Z,54.52
2017-12-13T10:21:07.075Z,53.76
2017-12-13T10:23:33.919Z,53.58
2017-12-13T10:26:00.353Z,53.83
2017-12-13T10:28:26.788Z,53.71
2017-12-13T10:30:53.426Z,53.53
2017-12-13T10:33:20.100Z,53.55
2017-12-13T10:35:46.523Z,53.71
2017-12-13T10:38:12.869Z,53.37
2017-12-13T10:40:39.784Z,53.24
2017-12-13T10:43:06.216Z,52.79
2017-12-13T10:45:32.652Z,52.62
2017-12-13T10:47:59.496Z,52.29
2017-12-13T10:50:25.947Z,51.82
2017-12-13T10:52:52.466Z,51.83
2017-12-13T10:55:19.245Z,51.56
2017-12-13T10:57:45.743Z,51.40
2017-12-13T11:00:12.276Z,51.20
2017-12-13T11:02:39.333Z,51.25
2017-12-13T11:05:05.777Z,51.50
2017-12-13T11:07:32.203Z,53.19
2017-12-13T11:09:58.842Z,54.01
2017-12-13T11:12:25.242Z,54.91
2017-12-13T11:14:51.708Z,55.08
2017-12-13T11:17:18.333Z,55.20
2017-12-13T11:19:44.776Z,55.26
2017-12-13T11:22:11.282Z,55.35
2017-12-13T11:24:37.865Z,54.77
2017-12-13T11:27:04.290Z,54.92
2017-12-13T11:29:30.725Z,54.09
2017-12-13T11:31:57.364Z,54.00
2017-12-13T11:34:23.798Z,53.86
2017-12-13T11:36:50.540Z,53.73
2017-12-13T11:39:17.213Z,53.52
2017-12-13T11:41:43.682Z,53.15
2017-12-13T11:44:10.253Z,53.04
2017-12-13T11:46:37.097Z,52.62
2017-12-13T11:49:03.635Z,52.26
2017-12-13T11:51:30.172Z,52.01
2017-12-13T11:53:56.811Z,51.59
2017-12-13T11:56:23.180Z,50.99
2017-12-13T11:58:49.657Z,50.39
2017-12-13T12:01:16.425Z,50.04
2017-12-13T12:03:43.286Z,49.84
2017-12-13T12:06:09.884Z,49.53
2017-12-13T12:08:36.591Z,49.12
2017-12-13T12:11:03.171Z,48.96
2017-12-13T12:13:29.620Z,48.42
2017-12-13T12:15:56.259Z,48.00
2017-12-13T12:18:22.673Z,47.30
2017-12-13T12:20:49.160Z,46.73
2017-12-13T12:23:16.010Z,46.48
2017-12-13T12:25:42.817Z,46.82
2017-12-13T12:28:09.355Z,47.22
2017-12-13T12:30:36.197Z,47.80
2017-12-13T12:33:02.735Z,48.95
2017-12-13T12:35:29.168Z,49.96
2017-12-13T12:37:56.058Z,50.79
2017-12-13T12:40:22.632Z,51.17
2017-12-13T12:42:49.260Z,51.05
2017-12-13T12:45:18.620Z,50.54
2017-12-13T12:47:47.236Z,50.39
2017-12-13T12:50:13.819Z,50.09
2017-12-13T12:52:40.496Z,50.33
2017-12-13T12:55:06.987Z,50.42
2017-12-13T12:57:35.639Z,50.45
2017-12-13T13:00:02.632Z,50.23
2017-12-13T13:02:29.167Z,50.48
2017-12-13T13:04:55.601Z,50.92
2017-12-13T13:07:22.548Z,51.54
2017-12-13T13:09:49.085Z,52.51
2017-12-13T13:12:15.521Z,53.35
2017-12-13T13:14:42.096Z,53.94
2017-12-13T13:17:08.595Z,54.42
2017-12-13T13:19:35.027Z,55.04
2017-12-13T13:22:01.874Z,55.76
2017-12-13T13:24:28.305Z,56.36
2017-12-13T13:26:54.676Z,56.92
2017-12-13T13:29:21.484Z,57.18
2017-12-13T13:31:47.921Z,57.39
2017-12-13T13:34:14.351Z,57.65
2017-12-13T13:36:40.990Z,58.05
2017-12-13T13:39:07.361Z,58.71
2017-12-13T13:41:34.101Z,59.33
2017-12-13T13:44:00.807Z,59.66
2017-12-13T13:46:27.321Z,59.83
2017-12-13T13:48:54.525Z,59.98
2017-12-13T13:51:21.339Z,60.38
2017-12-13T13:53:47.877Z,60.56
2017-12-13T13:56:14.310Z,60.98
2017-12-13T13:58:40.951Z,61.37
2017-12-13T14:01:07.552Z,61.72
2017-12-13T14:03:34.025Z,62.02
2017-12-13T14:06:00.664Z,62.41
2017-12-13T14:08:27.101Z,62.69
2017-12-13T14:10:53.642Z,62.90
2017-12-13T14:13:20.519Z,63.33
2017-12-13T14:15:46.954Z,64.04
2017-12-13T14:18:13.451Z,64.55
2017-12-13T14:20:40.090Z,65.04
2017-12-13T14:23:06.527Z,65.57
2017-12-13T14:25:32.961Z,66.02
2017-12-13T14:27:59.532Z,66.66
2017-12-13T14:32:57.215Z,66.92
2017-12-13T14:35:23.819Z,67.25
2017-12-13T14:37:50.252Z,67.66
2017-12-13T14:40:16.789Z,67.64
2017-12-13T14:42:43.711Z,68.02
2017-12-13T14:45:10.298Z,68.45
2017-12-13T14:47:37.220Z,68.87
2017-12-13T14:50:04.065Z,69.22
2017-12-13T14:52:30.499Z,69.30
2017-12-13T14:54:56.933Z,69.59
2017-12-13T14:57:23.612Z,69.93
2017-12-13T14:59:50.314Z,70.28
2017-12-13T15:02:16.721Z,69.73
2017-12-13T15:04:44.108Z,69.74
2017-12-13T15:22:21.027Z,72.14
2017-12-13T15:24:47.412Z,72.66
2017-12-13T15:27:13.793Z,73.05
2017-12-13T15:29:40.228Z,73.19
2017-12-13T15:32:06.766Z,73.24
2017-12-13T15:34:33.099Z,73.58
2017-12-13T15:36:59.534Z,73.72
2017-12-13T15:39:25.968Z,74.12
2017-12-13T15:41:52.406Z,74.38
2017-12-13T15:44:18.837Z,74.56
2017-12-13T15:46:45.273Z,74.80
2017-12-13T15:49:11.694Z,74.83
2017-12-13T15:51:38.139Z,75.07
2017-12-13T15:54:04.760Z,75.13
2017-12-13T15:56:31.203Z,75.21
2017-12-13T15:58:57.618Z,75.24
2017-12-13T16:01:24.082Z,75.19
2017-12-13T16:03:50.503Z,75.08
2017-12-13T16:06:16.952Z,75.37
2017-12-13T16:08:43.284Z,75.69
2017-12-13T16:11:09.741Z,75.63
2017-12-13T16:13:36.054Z,75.75
2017-12-13T16:16:02.485Z,76.08
2017-12-13T16:18:28.818Z,76.24
2017-12-13T16:20:55.252Z,76.48
2017-12-13T16:23:21.694Z,76.69
2017-12-13T16:25:48.325Z,76.59
2017-12-13T16:28:14.792Z,76.71
2017-12-13T16:30:41.196Z,76.72
2017-12-13T16:33:07.630Z,76.72
2017-12-13T16:35:33.961Z,76.79
2017-12-13T16:38:00.396Z,77.01
2017-12-13T16:40:26.765Z,76.91
2017-12-13T16:42:53.163Z,76.92
2017-12-13T16:45:19.597Z,76.91
2017-12-13T16:47:45.966Z,76.86
2017-12-13T16:50:12.302Z,76.85
2017-12-13T16:52:38.696Z,76.80
2017-12-13T16:55:05.131Z,76.57
2017-12-13T16:57:31.584Z,76.36
2017-12-13T16:59:57.980Z,76.23
2017-12-13T17:02:24.437Z,76.14
2017-12-13T17:04:50.768Z,76.30
2017-12-13T17:07:17.133Z,76.21
2017-12-13T17:09:43.557Z,76.35
2017-12-13T17:12:10.070Z,75.65
2017-12-13T17:14:36.589Z,75.48
2017-12-13T17:17:02.976Z,75.07
2017-12-13T17:19:29.375Z,75.32
2017-12-13T17:21:55.811Z,75.16
2017-12-13T17:24:22.141Z,74.79
2017-12-13T17:26:48.503Z,74.61
2017-12-13T17:29:14.909Z,73.53
2017-12-13T17:31:41.445Z,73.42
2017-12-13T17:34:07.881Z,73.45
2017-12-13T17:36:34.419Z,73.79
2017-12-13T17:39:00.957Z,74.57
2017-12-13T17:41:27.389Z,75.94
2017-12-13T17:43:53.720Z,76.40
2017-12-13T17:46:20.053Z,76.73
2017-12-13T17:48:46.487Z,77.04
2017-12-13T17:51:12.923Z,77.20
2017-12-13T17:53:39.255Z,77.43
2017-12-13T17:56:05.689Z,77.80
2017-12-13T17:58:32.146Z,77.97
2017-12-13T18:00:58.574Z,78.20
2017-12-13T18:03:24.993Z,78.45
2017-12-13T18:05:51.767Z,78.75
2017-12-13T18:08:18.086Z,78.85
2017-12-13T18:10:44.579Z,79.08
2017-12-13T18:13:11.039Z,78.98
2017-12-13T18:15:37.404Z,79.13
2017-12-13T18:18:03.702Z,79.57
2017-12-13T18:20:30.138Z,79.64
2017-12-13T18:22:56.573Z,79.52
2017-12-13T18:25:23.005Z,79.79
2017-12-13T18:27:49.441Z,79.75
2017-12-13T18:30:15.875Z,79.80
2017-12-13T18:32:42.311Z,80.09
2017-12-13T18:35:08.690Z,80.24
2017-12-13T18:37:35.043Z,80.38
2017-12-13T18:40:01.439Z,80.47
2017-12-13T18:42:27.865Z,80.52
2017-12-13T18:44:54.174Z,80.63
2017-12-13T18:47:20.514Z,81.52
2017-12-13T18:49:47.454Z,81.62
2017-12-13T18:52:13.888Z,81.51
2017-12-13T18:54:40.217Z,81.40
2017-12-13T18:57:06.658Z,81.52
2017-12-13T18:59:33.090Z,81.62
2017-12-13T19:01:59.524Z,81.49
2017-12-13T19:04:25.959Z,81.59
2017-12-13T19:06:52.323Z,81.63
2017-12-13T19:09:18.726Z,81.60
2017-12-13T19:11:45.161Z,81.45
2017-12-13T19:14:11.614Z,81.25
2017-12-13T19:16:37.963Z,81.15
2017-12-13T19:19:04.363Z,81.33
2017-12-13T19:21:30.800Z,81.41
2017-12-13T19:23:57.232Z,81.49
2017-12-13T19:26:23.667Z,81.34
2017-12-13T19:28:50.101Z,81.31
2017-12-13T19:31:16.463Z,81.24
2017-12-13T19:33:42.835Z,80.82
2017-12-13T19:36:09.233Z,80.66
2017-12-13T19:38:35.690Z,80.58
2017-12-13T19:41:02.069Z,80.65
2017-12-13T19:43:28.503Z,80.75
2017-12-13T19:45:54.940Z,80.79
2017-12-13T19:48:21.373Z,80.83
2017-12-13T19:50:47.810Z,80.86
2017-12-13T19:53:14.128Z,80.77
2017-12-13T19:55:40.613Z,80.61
2017-12-13T19:58:06.963Z,80.10
2017-12-13T20:00:33.362Z,79.34
2017-12-13T20:02:59.775Z,79.25
2017-12-13T20:05:26.107Z,79.55
2017-12-13T20:07:52.542Z,79.77
2017-12-13T20:10:18.872Z,79.91
2017-12-13T20:12:45.290Z,79.33
2017-12-13T20:15:11.743Z,79.62
2017-12-13T20:17:38.180Z,79.84
2017-12-13T20:20:04.612Z,79.89
2017-12-13T20:22:31.151Z,79.93
2017-12-13T20:24:57.604Z,80.11
2017-12-13T20:27:24.018Z,80.17
2017-12-13T20:29:50.454Z,80.32
2017-12-13T20:32:16.991Z,80.38
2017-12-13T20:34:43.447Z,80.36
2017-12-13T20:37:09.859Z,80.28
2017-12-13T20:39:36.293Z,80.24
2017-12-13T20:42:02.727Z,80.21
2017-12-13T20:44:29.059Z,80.19
2017-12-13T20:46:55.393Z,80.21
2017-12-13T20:49:21.894Z,80.27
2017-12-13T20:51:48.261Z,80.26
2017-12-13T20:54:14.624Z,80.25
2017-12-13T20:56:41.028Z,80.32
2017-12-13T20:59:07.466Z,80.55
2017-12-13T21:01:33.884Z,80.68
2017-12-13T21:04:00.333Z,80.69
2017-12-13T21:06:26.872Z,80.59
2017-12-13T21:08:53.304Z,80.41
2017-12-13T21:11:19.738Z,80.35
2017-12-13T21:13:46.072Z,80.31
2017-12-13T21:16:12.507Z,80.21
2017-12-13T21:18:38.944Z,80.21
2017-12-13T21:21:05.376Z,80.00
2017-12-13T21:23:31.814Z,80.03
2017-12-13T21:25:58.246Z,79.94
2017-12-13T21:28:24.681Z,79.10
2017-12-13T21:30:51.135Z,78.71
2017-12-13T21:33:17.508Z,79.02
2017-12-13T21:35:43.951Z,78.83
2017-12-13T21:38:10.314Z,78.99
2017-12-13T21:40:36.736Z,79.00
2017-12-13T21:43:03.110Z,79.09
2017-12-13T21:45:29.449Z,79.25
2017-12-13T21:47:55.847Z,79.26
2017-12-13T21:50:22.281Z,79.47
2017-12-13T21:52:48.717Z,79.67
2017-12-13T21:55:15.088Z,79.77
2017-12-13T21:57:41.485Z,79.86
2017-12-13T22:00:07.918Z,79.83
2017-12-13T22:02:34.288Z,80.26
2017-12-13T22:05:00.686Z,80.41
2017-12-13T22:07:27.119Z,80.91
2017-12-13T22:09:53.658Z,81.40
2017-12-13T22:12:19.989Z,81.56
2017-12-13T22:14:46.424Z,81.63
2017-12-13T22:17:12.793Z,81.55
2017-12-13T22:19:39.189Z,81.68
2017-12-13T22:22:06.649Z,81.67
2017-12-13T22:24:33.083Z,81.42
2017-12-13T22:26:59.448Z,80.68
2017-12-13T22:29:25.851Z,80.21
2017-12-13T22:31:52.285Z,80.03
2017-12-13T22:34:18.822Z,80.32
2017-12-13T22:36:45.261Z,80.35
2017-12-13T22:39:11.795Z,79.96
2017-12-13T22:41:38.228Z,80.05
2017-12-13T22:44:04.662Z,80.52
2017-12-13T22:46:31.098Z,80.58
2017-12-13T22:48:57.553Z,80.74
2017-12-13T22:51:23.993Z,80.68
2017-12-13T22:53:50.401Z,80.84
2017-12-13T22:56:16.836Z,80.44
2017-12-13T22:58:43.271Z,80.27
2017-12-13T23:01:09.707Z,79.72
2017-12-13T23:03:36.162Z,79.65
2017-12-13T23:06:02.577Z,80.10
2017-12-13T23:08:29.012Z,79.81
2017-12-13T23:10:55.398Z,79.77
2017-12-13T23:13:21.708Z,79.85
2017-12-13T23:15:48.109Z,79.76
2017-12-13T23:18:14.543Z,79.59
2017-12-13T23:20:40.978Z,79.83
2017-12-13T23:23:07.412Z,79.88
2017-12-13T23:25:33.865Z,80.16
2017-12-13T23:28:00.219Z,79.84
2017-12-13T23:30:26.660Z,79.79
2017-12-13T23:32:52.976Z,80.01
2017-12-13T23:35:19.382Z,80.29
2017-12-13T23:37:45.712Z,80.48
2017-12-13T23:40:12.148Z,80.56
2017-12-13T23:42:38.581Z,80.68
2017-12-13T23:45:05.035Z,80.84
2017-12-13T23:47:31.408Z,80.96
2017-12-13T23:49:57.774Z,81.36
2017-12-13T23:52:24.115Z,81.86
2017-12-13T23:54:50.581Z,81.93
2017-12-13T23:57:16.985Z,81.89
2017-12-13T23:59:43.426Z,82.10
